Latest Coastal Weather Observations for Norah Head

IDN60701

Issued at 4:21 am EST Tuesday 4 August 2020 (issued every 10 minutes, with the page automatically refreshed every 10 minutes)

About coastal observations | Map of coastal stations | Coastal observations for NSW | Marine services | Other Formats
Station Details ID: 061366 Name: NORAH HEAD AWS Lat: -33.28 Lon: 151.58 Height: 18.8 m
Data from the previous 72 hours. | See also: Recent months at Norah Head
Date/Time
EST
Wind Sea
Height
m
Swell Vis
km
Cloud Weather Temp
°C
Press
hPa
Rain since
9am
mm
Dir  Spd
kts
Gust
kts
Height
m
Period
s
Dir
04/04:00am NW 4 7 - - - - - - - 11.6 1012.9 0.0
04/03:30am NNW 5 7 - - - - - - - 11.4 1013.0 0.0
04/03:00am NW 3 5 - - - - - - - 11.6 1013.3 0.0
04/02:30am NW 3 5 - - - - - - - 11.7 1013.5 0.0
04/02:00am NNW 4 5 - - - - - - - 12.1 1013.8 0.0
04/01:30am NW 2 4 - - - - - - - 12.6 1014.1 0.0
04/01:00am NW 4 6 - - - - - - - 12.7 1014.4 0.0
04/12:30am NW 4 7 - - - - - - - 12.9 1014.7 0.0
04/12:00am NW 4 5 - - - - - - - 12.4 1014.9 0.0
 
Date/Time
EST
Wind Sea
Height
m
Swell Vis
km
Cloud Weather Temp
°C
Press
hPa
Rain since
9am
mm
Dir  Spd
kts
Gust
kts
Height
m
Period
s
Dir
03/11:30pm NNW 5 7 - - - - - - - 13.4 1015.0 0.0
03/11:00pm NW 2 5 - - - - - - - 14.0 1015.3 0.0
03/10:30pm NW 2 4 - - - - - - - 14.8 1015.3 0.0
03/10:00pm NW 4 7 - - - - - - - 14.9 1015.4 0.0
03/09:30pm NW 4 7 - - - - - - - 14.8 1015.3 0.0
03/09:00pm NW 5 7 - - - - - - - 14.8 1015.3 0.0
03/08:30pm NW 4 6 - - - - - - - 14.7 1015.4 0.0
03/08:00pm NW 5 7 - - - - - - - 14.7 1015.3 0.0
03/07:30pm NW 5 7 - - - - - - - 14.8 1015.2 0.0
03/07:00pm NW 6 8 - - - - - - - 15.2 1015.1 0.0
03/06:30pm NNW 9 11 - - - - - - - 15.8 1015.0 0.0
03/06:00pm NNW 8 9 - - - - - - - 15.6 1015.0 0.0
03/05:30pm NNW 7 9 - - - - - - - 16.1 1014.9 0.0
03/05:00pm N 9 10 - - - - - - - 16.6 1014.9 0.0
03/04:30pm N 11 11 - - - - - - - 17.8 1014.8 0.0
03/04:00pm N 9 10 - - - - - - - 18.4 1014.8 0.0
03/03:30pm N 7 9 - - - - - - - 18.5 1014.9 0.0
03/03:00pm N 10 11 - - - - - - - 18.5 1015.0 0.0
03/02:30pm N 8 9 - - - - - - - 18.5 1015.2 0.0
03/02:00pm N 10 13 - - - - - - - 19.2 1015.5 0.0
03/01:30pm N 10 12 - - - - - - - 19.2 1015.7 0.0
03/01:00pm N 9 10 - - - - - - - 20.2 1016.2 0.0
03/12:30pm NNE 6 8 - - - - - - - 19.9 1016.9 0.0
03/12:00pm NNE 4 5 - - - - - - - 19.7 1017.6 0.0
03/11:30am NNE 4 5 - - - - - - - 18.4 1018.4 0.0
03/11:00am N 5 7 - - - - - - - 17.7 1018.9 0.0
03/10:30am N 4 5 - - - - - - - 16.3 1019.5 0.0
03/10:00am N 6 7 - - - - - - - 15.3 1019.9 0.0
03/09:30am N 5 6 - - - - - - - 15.3 1020.1 0.0
03/09:00am N 4 5 - - - - - - - 14.3 1020.3 0.2
03/08:30am NNW 2 3 - - - - - - - 12.9 1020.3 0.2
03/08:00am WNW 1 2 - - - - - - - 11.3 1020.4 0.2
03/07:30am CALM 0 2 - - - - - - - 10.0 1020.3 0.2
03/07:00am NW 3 4 - - - - - - - 8.6 1020.1 0.2
03/06:30am NNW 4 5 - - - - - - - 9.4 1019.7 0.2
03/06:00am NW 5 6 - - - - - - - 9.3 1019.6 0.2
03/05:30am NW 4 5 - - - - - - - 9.3 1019.5 0.2
03/05:00am NW 4 5 - - - - - - - 9.7 1019.6 0.2
03/04:30am WNW 4 6 - - - - - - - 9.8 1019.9 0.0
03/04:00am WNW 3 4 - - - - - - - 10.7 1020.1 0.0
03/03:30am W 3 4 - - - - - - - 11.2 1020.2 0.0
03/03:00am WNW 3 4 - - - - - - - 10.9 1020.3 0.0
03/02:30am NW 2 2 - - - - - - - 11.1 1020.7 0.0
03/02:00am WNW 3 5 - - - - - - - 11.3 1021.0 0.0
03/01:30am NW 3 4 - - - - - - - 11.3 1021.2 0.0
03/01:00am NW 4 5 - - - - - - - 11.5 1021.4 0.0
03/12:30am NW 2 3 - - - - - - - 12.0 1021.5 0.0
03/12:00am CALM 0 0 - - - - - - - 12.4 1021.9 0.0
 
Date/Time
EST
Wind Sea
Height
m
Swell Vis
km
Cloud Weather Temp
°C
Press
hPa
Rain since
9am
mm
Dir  Spd
kts
Gust
kts
Height
m
Period
s
Dir
02/11:30pm NNW 3 3 - - - - - - - 12.9 1022.0 0.0
02/11:00pm NW 5 5 - - - - - - - 13.0 1022.2 0.0
02/10:30pm NW 4 5 - - - - - - - 13.0 1022.4 0.0
02/10:00pm NW 5 6 - - - - - - - 13.0 1022.6 0.0
02/09:30pm NW 5 6 - - - - - - - 13.2 1022.8 0.0
02/09:00pm NW 4 5 - - - - - - - 13.2 1023.0 0.0
02/08:30pm NW 4 5 - - - - - - - 13.0 1023.0 0.0
02/08:00pm NNW 4 4 - - - - - - - 13.2 1022.9 0.0
02/07:30pm NW 3 4 - - - - - - - 13.5 1023.1 0.0
02/07:00pm NE 4 5 - - - - - - - 13.6 1023.0 0.0
02/06:30pm NE 5 6 - - - - - - - 13.7 1022.9 0.0
02/06:00pm NE 5 6 - - - - - - - 13.6 1022.8 0.0
02/05:30pm NE 5 6 - - - - - - - 13.5 1022.8 0.0
02/05:00pm NE 5 7 - - - - - - - 14.1 1022.7 0.0
02/04:30pm NE 4 5 - - - - - - - 15.0 1022.6 0.0
02/04:00pm ENE 4 5 - - - - - - - 17.0 1022.7 0.0
02/03:30pm NE 4 5 - - - - - - - 18.1 1022.6 0.0
02/03:00pm ENE 4 5 - - - - - - - 16.3 1022.7 0.0
02/02:30pm ENE 4 5 - - - - - - - 16.3 1022.8 0.0
02/02:00pm E 4 5 - - - - - - - 16.6 1022.9 0.0
02/01:30pm ENE 4 5 - - - - - - - 16.9 1023.1 0.0
02/01:00pm E 3 4 - - - - - - - 16.8 1023.5 0.0
02/12:30pm ENE 3 4 - - - - - - - 17.0 1023.9 0.0
02/12:00pm ENE 2 3 - - - - - - - 17.3 1024.4 0.0
02/11:30am ENE 2 3 - - - - - - - 16.4 1024.7 0.0
02/11:00am ENE 1 2 - - - - - - - 16.4 1025.1 0.0
02/10:30am CALM 0 2 - - - - - - - 15.8 1025.3 0.0
02/10:00am NW 2 4 - - - - - - - 15.6 1025.5 0.0
02/09:30am WNW 2 5 - - - - - - - 14.2 1025.7 0.0
02/09:00am W 3 8 - - - - - - - 12.8 1025.5 0.0
02/08:30am W 5 8 - - - - - - - 11.8 1025.4 0.0
02/08:00am W 7 9 - - - - - - - 11.0 1025.3 0.0
02/07:30am W 7 8 - - - - - - - 11.3 1024.9 0.0
02/07:00am W 6 8 - - - - - - - 10.7 1024.6 0.0
02/06:30am W 8 10 - - - - - - - 10.4 1024.3 0.0
02/06:00am W 7 9 - - - - - - - 10.4 1023.9 0.0
02/05:30am W 8 10 - - - - - - - 10.4 1023.7 0.0
02/05:00am W 9 11 - - - - - - - 10.3 1023.3 0.0
02/04:30am NW 3 5 - - - - - - - 9.1 1023.1 0.0
02/04:00am NW 4 6 - - - - - - - 9.3 1023.1 0.0
02/03:30am NW 5 7 - - - - - - - 9.7 1023.0 0.0
02/03:00am NW 4 6 - - - - - - - 9.8 1023.0 0.0
02/02:30am NW 4 7 - - - - - - - 10.2 1023.3 0.0
02/02:00am NW 4 6 - - - - - - - 10.0 1023.6 0.0
02/01:30am WNW 5 7 - - - - - - - 10.8 1023.8 0.0
02/01:00am NW 6 8 - - - - - - - 11.1 1023.9 0.0
02/12:30am NW 5 6 - - - - - - - 11.2 1024.0 0.0
02/12:00am NNW 5 6 - - - - - - - 11.8 1024.3 0.0
 
Date/Time
EST
Wind Sea
Height
m
Swell Vis
km
Cloud Weather Temp
°C
Press
hPa
Rain since
9am
mm
Dir  Spd
kts
Gust
kts
Height
m
Period
s
Dir
01/11:30pm NNW 5 6 - - - - - - - 12.2 1024.3 0.0
01/11:00pm NW 4 5 - - - - - - - 11.6 1024.5 0.0
01/10:30pm NW 4 6 - - - - - - - 12.0 1024.5 0.0
01/10:00pm NW 4 6 - - - - - - - 12.3 1024.4 0.0
01/09:30pm NNW 5 7 - - - - - - - 12.8 1024.3 0.0
01/09:00pm NW 6 7 - - - - - - - 13.2 1024.3 0.0
01/08:30pm NNW 5 6 - - - - - - - 13.7 1024.4 0.0
01/08:00pm N 8 11 - - - - - - - 14.9 1024.3 0.0
01/07:30pm NNE 10 11 - - - - - - - 14.9 1024.1 0.0
01/07:00pm NNE 10 12 - - - - - - - 15.0 1023.9 0.0
01/06:30pm NNE 10 12 - - - - - - - 15.0 1023.6 0.0
01/06:00pm NNE 12 14 - - - - - - - 15.3 1023.3 0.0
01/05:30pm NE 12 15 - - - - - - - 14.7 1023.2 0.0
01/05:00pm NE 12 13 - - - - - - - 14.6 1023.2 0.0
01/04:30pm NE 12 13 - - - - - - - 14.8 1023.3 0.0
01/04:00pm NE 11 13 - - - - - - - 15.4 1023.3 0.0
01/03:30pm NE 12 13 - - - - - - - 16.3 1023.2 0.0
01/03:00pm NE 12 13 - - - - - - - 17.4 1023.1 0.0
01/02:30pm NE 11 12 - - - - - - - 18.5 1023.3 0.0
01/02:00pm NE 10 13 - - - - - - - 18.7 1023.6 0.0
01/01:30pm NE 10 11 - - - - - - - 18.7 1024.0 0.0
01/01:00pm NNE 9 10 - - - - - - - 18.4 1024.3 0.0
01/12:30pm N 10 13 - - - - - - - 17.8 1024.9 0.0
01/12:00pm N 12 14 - - - - - - - 17.5 1025.3 0.0
01/11:30am N 9 10 - - - - - - - 17.6 1025.9 0.0
01/11:00am N 5 7 - - - - - - - 17.0 1026.4 0.0
01/10:30am N 5 6 - - - - - - - 16.9 1026.8 0.0
01/10:00am NNW 4 5 - - - - - - - 16.0 1026.9 0.0
01/09:30am NNW 3 5 - - - - - - - 15.1 1026.8 0.0
01/09:00am NW 4 6 - - - - - - - 14.1 1026.9 0.0
01/08:30am NW 4 5 - - - - - - - 12.6 1026.8 0.0
01/08:00am WNW 5 7 - - - - - - - 11.6 1026.8 0.0
01/07:30am NW 5 7 - - - - - - - 11.6 1026.5 0.0
01/07:00am WNW 6 8 - - - - - - - 11.1 1026.3 0.0
01/06:30am NW 6 7 - - - - - - - 10.9 1026.0 0.0
01/06:00am WNW 4 7 - - - - - - - 10.5 1026.1 0.0
01/05:30am W 5 8 - - - - - - - 10.3 1026.1 0.0
01/05:00am W 6 8 - - - - - - - 10.1 1025.9 0.0
01/04:30am W 6 8 - - - - - - - 10.4 1026.0 0.0

Other formats

Comma delimited format used in spreadsheet applications
http://www.bom.gov.au/fwo/IDN60701/IDN60701.95770.axf

JavaScript Object Notation format (JSON) in row-major order
http://www.bom.gov.au/fwo/IDN60701/IDN60701.95770.json

Data quality

Most of these data are generated automatically and are frequently updated. Quality checks on data are not normally performed. It is possible for incorrect values to appear. Refer to information at About Latest Weather Observations and please check the disclaimer before using these data.